Time;durP1;ratioP1;P1;durP2;ratioP2;P2;SDS_P1;SDS_P2;PMS_P1;PMS_P2;Temp;Humidity;BMP_temperature;BMP_pressure;BME280_temperature;BME280_humidity;BME280_pressure;Samples;Min_cycle;Max_cycle;Signal;HPM_P1;HPM_P2
2022/02/09 00:05:01;;;;;;;14.77;9.15;;;11.30;99.90;;;;;;5051650;28;20516;-63
2022/02/09 00:07:38;;;;;;;15.43;9.35;;;11.30;99.90;;;;;;5052228;28;20079;-63
2022/02/09 00:10:05;;;;;;;12.65;9.15;;;11.30;99.90;;;;;;5036366;28;20032;-63
2022/02/09 00:12:38;;;;;;;13.07;8.70;;;11.40;99.90;;;;;;5034218;28;20029;-63
2022/02/09 00:15:21;;;;;;;12.75;9.10;;;11.30;99.90;;;;;;5051081;28;20021;-63
2022/02/09 00:18:10;;;;;;;14.00;9.00;;;11.30;99.90;;;;;;5053625;28;20037;-63
2022/02/09 00:29:14;;;;;;;15.02;9.32;;;11.30;99.90;;;;;;5034139;28;20033;-63
2022/02/09 00:32:03;;;;;;;15.80;9.32;;;11.40;99.90;;;;;;5033783;28;20025;-63
2022/02/09 00:43:27;;;;;;;14.48;9.77;;;11.40;99.90;;;;;;5024691;28;20091;-63
2022/02/09 01:02:41;;;;;;;13.75;9.65;;;11.40;99.90;;;;;;5044998;28;20120;-63
2022/02/09 01:03:05;;;;;;;15.52;9.73;;;11.40;99.90;;;;;;5047853;28;20043;-63
2022/02/09 01:37:54;;;;;;;14.90;9.82;;;11.40;99.90;;;;;;5050554;28;20638;-63
2022/02/09 01:38:45;;;;;;;17.10;9.43;;;11.30;99.90;;;;;;5035822;28;20158;-63
2022/02/09 01:42:36;;;;;;;14.48;9.30;;;11.30;99.90;;;;;;5032693;28;20030;-63
2022/02/09 01:57:35;;;;;;;15.13;8.88;;;11.30;99.90;;;;;;5052127;28;20029;-63
2022/02/09 02:00:01;;;;;;;14.77;8.95;;;11.30;99.90;;;;;;5049509;28;20017;-62
2022/02/09 02:02:27;;;;;;;15.27;9.75;;;11.30;99.90;;;;;;5050655;28;20061;-63
2022/02/09 02:04:52;;;;;;;15.77;9.82;;;11.30;99.90;;;;;;5019420;28;20529;-63
2022/02/09 02:07:32;;;;;;;15.38;9.65;;;11.30;99.90;;;;;;5034006;28;20052;-63
2022/02/09 02:10:04;;;;;;;14.70;9.48;;;11.30;99.90;;;;;;5043281;28;20053;-63
2022/02/09 02:12:34;;;;;;;17.92;9.75;;;11.40;99.90;;;;;;5031612;28;20097;-62
2022/02/09 02:15:18;;;;;;;14.43;9.30;;;11.40;99.90;;;;;;5031798;28;20032;-63
2022/02/09 02:17:48;;;;;;;15.10;9.33;;;11.40;99.90;;;;;;5032492;28;20033;-63
2022/02/09 02:20:29;;;;;;;15.23;9.38;;;11.40;99.90;;;;;;5032218;28;20132;-62
2022/02/09 02:23:25;;;;;;;16.00;9.43;;;11.40;99.90;;;;;;5031174;28;20040;-63
2022/02/09 02:26:04;;;;;;;14.45;9.32;;;11.40;99.90;;;;;;5030980;28;20116;-62
2022/02/09 02:29:06;;;;;;;13.73;9.23;;;11.40;99.90;;;;;;5035921;28;20075;-63
2022/02/09 02:37:05;;;;;;;14.32;8.80;;;11.30;99.90;;;;;;5051237;28;20037;-63
2022/02/09 02:39:59;;;;;;;14.93;9.10;;;11.30;99.90;;;;;;5046181;28;20033;-63
2022/02/09 02:46:02;;;;;;;14.77;8.50;;;11.30;99.90;;;;;;5036080;28;20040;-63
2022/02/09 02:56:53;;;;;;;13.32;8.88;;;11.30;99.90;;;;;;5031489;28;20067;-63
2022/02/09 03:10:59;;;;;;;11.50;8.25;;;11.30;99.90;;;;;;5031304;28;20055;-63
2022/02/09 03:13:09;;;;;;;9.77;7.22;;;11.30;99.90;;;;;;5031107;28;20158;-63
2022/02/09 03:15:46;;;;;;;9.75;6.82;;;11.20;99.90;;;;;;5050142;28;20025;-63
2022/02/09 03:19:00;;;;;;;13.50;7.50;;;11.30;99.90;;;;;;5035500;28;20037;-63
2022/02/09 03:24:08;;;;;;;8.85;6.40;;;11.20;99.90;;;;;;5049454;28;20028;-64
2022/02/09 03:26:56;;;;;;;10.48;7.60;;;11.20;99.90;;;;;;5045908;28;20037;-63
2022/02/09 03:45:58;;;;;;;11.40;8.00;;;11.20;99.90;;;;;;5054242;28;20037;-63
2022/02/09 03:48:56;;;;;;;10.80;8.38;;;11.10;99.90;;;;;;5035127;28;20575;-63
2022/02/09 03:54:14;;;;;;;13.60;9.25;;;11.20;99.90;;;;;;5052820;28;20059;-63
2022/02/09 03:56:58;;;;;;;12.82;9.18;;;11.20;99.90;;;;;;5048983;28;20029;-63
2022/02/09 03:59:24;;;;;;;13.88;8.95;;;11.20;99.90;;;;;;5033437;28;20037;-63
2022/02/09 04:01:50;;;;;;;14.88;9.55;;;11.20;99.90;;;;;;5034498;28;20068;-63
2022/02/09 04:04:16;;;;;;;14.77;10.35;;;11.20;99.90;;;;;;5023304;28;20378;-63
2022/02/09 04:06:42;;;;;;;12.68;9.77;;;11.20;99.90;;;;;;5033638;28;20129;-63
2022/02/09 04:09:12;;;;;;;14.35;10.27;;;11.20;99.90;;;;;;5042806;28;20059;-63
2022/02/09 04:11:46;;;;;;;15.52;11.13;;;11.20;99.90;;;;;;5050761;28;20037;-62
2022/02/09 04:14:24;;;;;;;17.35;11.07;;;11.20;99.90;;;;;;5039731;28;20029;-62
2022/02/09 04:17:00;;;;;;;14.45;10.93;;;11.20;99.90;;;;;;5034164;28;20116;-62
2022/02/09 04:19:52;;;;;;;16.98;11.52;;;11.20;99.90;;;;;;5044816;28;20053;-63
2022/02/09 04:36:10;;;;;;;18.10;12.40;;;11.20;99.90;;;;;;5040697;28;20111;-62
2022/02/09 04:38:45;;;;;;;16.38;11.55;;;11.20;99.90;;;;;;5033528;28;20076;-62
2022/02/09 04:41:36;;;;;;;15.93;11.98;;;11.20;99.90;;;;;;5033986;28;20046;-62
2022/02/09 04:44:18;;;;;;;17.83;12.68;;;11.20;99.90;;;;;;5045861;28;20446;-63
2022/02/09 04:49:40;;;;;;;16.42;12.10;;;11.20;99.90;;;;;;5045767;28;20452;-62
2022/02/09 04:54:58;;;;;;;16.42;10.82;;;11.20;99.90;;;;;;5047471;28;20468;-62
2022/02/09 05:02:53;;;;;;;14.45;10.65;;;11.20;99.90;;;;;;5037483;28;20194;-62
2022/02/09 05:17:42;;;;;;;14.65;9.90;;;11.20;99.90;;;;;;5032713;28;20447;-63
2022/02/09 05:24:46;;;;;;;13.55;9.63;;;11.20;99.90;;;;;;5021019;28;20132;-62
2022/02/09 05:27:34;;;;;;;11.48;8.75;;;11.20;99.90;;;;;;5032518;28;20508;-63
2022/02/09 05:30:03;;;;;;;13.52;9.18;;;11.20;99.90;;;;;;5030511;28;20042;-62
2022/02/09 05:32:29;;;;;;;12.95;8.80;;;11.30;99.90;;;;;;5051767;28;20606;-62
2022/02/09 05:34:54;;;;;;;12.68;9.10;;;11.20;99.90;;;;;;5032956;28;20112;-62
2022/02/09 05:37:20;;;;;;;11.35;8.05;;;11.20;99.90;;;;;;5032820;28;20117;-62
2022/02/09 05:39:45;;;;;;;12.38;8.13;;;11.20;99.90;;;;;;5049380;28;20366;-63
2022/02/09 05:42:11;;;;;;;12.73;7.32;;;11.20;99.90;;;;;;5052045;28;20036;-62
2022/02/09 05:44:36;;;;;;;11.07;7.45;;;11.30;99.90;;;;;;5044225;28;20527;-62
2022/02/09 05:47:44;;;;;;;10.73;7.53;;;11.30;99.90;;;;;;5032893;28;20033;-63
2022/02/09 05:53:15;;;;;;;11.25;7.70;;;11.20;99.90;;;;;;5047701;28;20056;-63
2022/02/09 05:58:10;;;;;;;10.97;6.43;;;11.30;99.90;;;;;;5034274;28;20104;-62
2022/02/09 06:00:36;;;;;;;10.25;7.47;;;11.30;99.90;;;;;;5049425;28;20021;-62
2022/02/09 06:03:01;;;;;;;9.20;6.57;;;11.30;99.90;;;;;;5044923;28;20032;-62
2022/02/09 06:05:30;;;;;;;9.80;6.57;;;11.30;99.90;;;;;;5051699;28;20052;-62
2022/02/09 06:07:56;;;;;;;8.20;6.30;;;11.30;99.90;;;;;;5049326;28;20041;-61
2022/02/09 06:10:27;;;;;;;11.02;6.40;;;11.30;99.90;;;;;;5051678;28;20024;-62
2022/02/09 06:13:12;;;;;;;8.68;6.00;;;11.30;99.90;;;;;;5048931;28;20104;-61
2022/02/09 06:20:58;;;;;;;9.93;6.40;;;11.30;99.90;;;;;;5039736;28;20136;-61
2022/02/09 06:23:24;;;;;;;8.85;6.25;;;11.30;99.90;;;;;;5035264;28;20091;-60
2022/02/09 06:25:50;;;;;;;9.68;5.60;;;11.30;99.90;;;;;;5034124;28;20060;-61
2022/02/09 06:28:15;;;;;;;7.57;5.45;;;11.30;99.90;;;;;;5037167;28;20060;-61
2022/02/09 06:30:41;;;;;;;7.40;5.57;;;11.30;99.90;;;;;;5046889;28;20037;-61
2022/02/09 06:33:06;;;;;;;8.02;5.60;;;11.30;99.90;;;;;;5032571;28;20024;-61
2022/02/09 06:35:33;;;;;;;8.90;6.00;;;11.30;99.90;;;;;;5031537;28;20029;-61
2022/02/09 06:38:00;;;;;;;9.23;5.60;;;11.30;99.90;;;;;;5043829;28;20116;-60
2022/02/09 06:40:26;;;;;;;10.02;6.25;;;11.30;99.80;;;;;;5049472;28;20069;-60
2022/02/09 06:42:51;;;;;;;9.88;5.80;;;11.40;99.80;;;;;;5036616;28;20033;-61
2022/02/09 06:47:42;;;;;;;14.95;5.65;;;11.30;99.60;;;;;;5032182;28;20030;-61
2022/02/09 06:50:13;;;;;;;9.90;5.38;;;11.30;99.60;;;;;;5051478;28;20025;-61
2022/02/09 06:52:43;;;;;;;7.55;5.47;;;11.30;99.60;;;;;;5049984;28;20103;-60
2022/02/09 06:55:15;;;;;;;8.15;5.10;;;11.30;99.50;;;;;;5040252;28;20029;-61
2022/02/09 07:00:19;;;;;;;8.70;5.63;;;11.30;99.40;;;;;;5034881;28;20384;-61
2022/02/09 07:02:45;;;;;;;8.50;5.60;;;11.30;99.40;;;;;;5031634;28;20057;-61
2022/02/09 07:05:12;;;;;;;9.25;5.40;;;11.30;99.30;;;;;;5049487;28;20069;-61
2022/02/09 07:07:38;;;;;;;7.07;5.47;;;11.40;99.30;;;;;;5049553;28;20545;-61
2022/02/09 07:10:07;;;;;;;7.32;5.30;;;11.30;99.20;;;;;;5050058;28;20025;-61
2022/02/09 07:12:33;;;;;;;8.23;5.45;;;11.30;99.20;;;;;;5030386;28;20025;-61
2022/02/09 07:14:58;;;;;;;11.20;5.57;;;11.30;99.10;;;;;;5030462;28;20033;-61
2022/02/09 07:17:24;;;;;;;6.38;4.97;;;11.40;99.10;;;;;;5031656;28;20634;-61
2022/02/09 07:19:55;;;;;;;9.30;5.78;;;11.40;99.00;;;;;;5034246;28;20025;-61
2022/02/09 07:22:26;;;;;;;13.18;5.18;;;11.40;99.00;;;;;;5047140;28;20059;-61
2022/02/09 07:25:04;;;;;;;8.88;6.03;;;11.40;98.80;;;;;;5048617;28;20032;-62
2022/02/09 07:30:15;;;;;;;8.55;5.53;;;11.40;98.70;;;;;;5050877;28;20036;-61
2022/02/09 07:32:41;;;;;;;7.95;5.43;;;11.40;98.60;;;;;;5046672;28;20033;-62
2022/02/09 07:35:07;;;;;;;7.57;4.75;;;11.40;98.60;;;;;;5050457;28;20078;-61
2022/02/09 07:37:32;;;;;;;8.68;5.25;;;11.50;98.60;;;;;;5048703;28;20491;-62
2022/02/09 07:39:59;;;;;;;6.70;4.68;;;11.50;98.70;;;;;;5043205;28;20024;-62
2022/02/09 07:42:28;;;;;;;7.65;5.25;;;11.50;98.60;;;;;;5015110;28;20022;-62
2022/02/09 07:45:09;;;;;;;7.20;4.75;;;11.60;98.50;;;;;;5044540;28;20032;-63
2022/02/09 07:47:59;;;;;;;7.80;4.63;;;11.60;98.50;;;;;;5024361;28;20036;-62
2022/02/09 07:52:55;;;;;;;5.55;4.10;;;11.60;98.30;;;;;;5041553;28;20090;-62
2022/02/09 07:55:21;;;;;;;8.85;4.93;;;11.70;98.40;;;;;;5045012;28;20029;-61
2022/02/09 07:57:46;;;;;;;6.60;4.53;;;11.80;98.40;;;;;;5034313;28;20029;-61
2022/02/09 08:00:13;;;;;;;8.95;4.47;;;11.80;98.20;;;;;;5048873;28;20036;-61
2022/02/09 08:02:39;;;;;;;6.13;4.30;;;11.80;98.10;;;;;;5035149;28;20037;-62
2022/02/09 08:05:05;;;;;;;6.78;4.55;;;11.90;98.10;;;;;;5042498;28;20045;-62
2022/02/09 08:07:31;;;;;;;6.75;4.00;;;11.90;98.00;;;;;;5041625;28;20038;-62
2022/02/09 08:09:57;;;;;;;7.22;4.30;;;11.90;97.90;;;;;;5040486;28;20022;-62
2022/02/09 08:12:34;;;;;;;5.30;4.00;;;11.90;97.80;;;;;;5039311;28;20025;-62
2022/02/09 08:20:27;;;;;;;6.50;3.83;;;12.00;97.60;;;;;;5039777;28;20078;-62
2022/02/09 08:22:19;;;;;;;5.32;3.50;;;12.00;97.60;;;;;;5052155;28;20037;-61
2022/02/09 08:23:51;;;;;;;4.10;3.17;;;12.00;97.40;;;;;;5044162;28;20026;-62
2022/02/09 08:34:29;;;;;;;4.15;2.88;;;12.00;97.10;;;;;;5028305;28;20047;-62
2022/02/09 08:36:56;;;;;;;4.75;2.60;;;12.00;97.00;;;;;;5052637;28;20123;-62
2022/02/09 08:39:23;;;;;;;6.07;3.00;;;12.00;96.90;;;;;;5049888;28;20029;-62
2022/02/09 08:41:49;;;;;;;5.75;3.00;;;12.00;96.90;;;;;;5037651;28;20493;-61
2022/02/09 08:44:15;;;;;;;4.47;2.78;;;12.00;96.70;;;;;;5050336;28;20480;-62
2022/02/09 08:46:42;;;;;;;4.53;3.20;;;12.00;96.80;;;;;;5046646;28;20037;-61
2022/02/09 08:49:09;;;;;;;6.28;3.55;;;12.00;96.80;;;;;;5044001;28;20116;-62
2022/02/09 08:51:34;;;;;;;5.30;3.90;;;12.00;96.90;;;;;;5047993;28;20044;-62
2022/02/09 08:54:00;;;;;;;5.43;3.28;;;12.10;97.00;;;;;;5049705;28;20021;-62
2022/02/09 08:56:28;;;;;;;4.85;3.70;;;12.10;97.00;;;;;;5050680;28;20025;-62
2022/02/09 08:58:53;;;;;;;5.93;3.78;;;12.10;97.00;;;;;;5043700;28;20022;-62
2022/02/09 09:01:28;;;;;;;4.38;3.47;;;12.10;97.00;;;;;;5040108;28;20036;-62
2022/02/09 09:03:57;;;;;;;5.53;4.18;;;12.10;97.00;;;;;;5049883;28;20047;-62
2022/02/09 09:06:26;;;;;;;5.07;3.70;;;12.10;96.90;;;;;;5051714;28;20040;-62
2022/02/09 09:11:57;;;;;;;6.75;3.25;;;12.20;96.90;;;;;;5039353;28;20037;-63
2022/02/09 09:17:30;;;;;;;6.50;3.55;;;12.20;96.80;;;;;;5050752;28;20037;-62
2022/02/09 09:31:31;;;;;;;6.35;3.83;;;12.30;96.70;;;;;;5040021;28;20087;-62
2022/02/09 10:01:24;;;;;;;4.83;3.47;;;12.60;96.00;;;;;;5052041;28;20074;-62
2022/02/09 10:04:12;;;;;;;6.90;3.67;;;12.60;96.00;;;;;;5040043;28;20432;-62
2022/02/09 10:37:47;;;;;;;4.30;3.00;;;12.50;95.30;;;;;;5032807;28;20515;-62
2022/02/09 10:40:35;;;;;;;7.55;4.20;;;12.50;95.20;;;;;;5048979;28;20029;-63
2022/02/09 10:43:03;;;;;;;5.68;2.92;;;12.60;95.10;;;;;;5031042;28;20549;-62
2022/02/09 10:45:32;;;;;;;4.95;2.50;;;12.60;95.10;;;;;;5034016;28;20029;-62
2022/02/09 10:48:03;;;;;;;6.47;3.42;;;12.60;94.90;;;;;;5048418;28;20037;-60
2022/02/09 10:50:37;;;;;;;4.93;2.70;;;12.60;95.00;;;;;;5037156;28;20297;-62
2022/02/09 10:53:04;;;;;;;;;;;12.60;94.90;;;;;;5064020;28;20563;-62
2022/02/09 10:55:38;;;;;;;3.92;2.67;;;12.70;95.00;;;;;;5041365;28;19916;-62
2022/02/09 10:58:08;;;;;;;5.72;2.50;;;12.60;94.90;;;;;;5045024;28;20480;-63
2022/02/09 11:00:34;;;;;;;9.70;2.75;;;12.70;94.80;;;;;;5038349;28;20037;-62
2022/02/09 11:02:59;;;;;;;5.60;3.20;;;12.70;94.70;;;;;;5044786;28;20111;-63
2022/02/09 11:05:26;;;;;;;5.40;3.25;;;12.70;94.60;;;;;;5055624;28;20040;-62
2022/02/09 11:07:54;;;;;;;5.88;3.47;;;12.70;94.50;;;;;;5038815;28;20064;-63
2022/02/09 11:10:20;;;;;;;6.43;3.15;;;12.70;94.60;;;;;;5050368;28;20021;-62
2022/02/09 11:12:46;;;;;;;5.28;2.72;;;12.70;94.60;;;;;;5049246;28;20646;-62
2022/02/09 11:15:17;;;;;;;3.47;2.30;;;12.70;94.50;;;;;;5050769;28;20116;-62
2022/02/09 11:17:46;;;;;;;5.85;2.83;;;12.80;94.60;;;;;;5048608;28;20051;-62
2022/02/09 11:20:14;;;;;;;4.25;2.65;;;12.80;94.20;;;;;;5049253;28;20111;-62
2022/02/09 11:22:42;;;;;;;7.40;2.60;;;12.80;94.20;;;;;;5064463;28;20025;-63
2022/02/09 11:25:08;;;;;;;4.22;2.20;;;12.80;94.10;;;;;;5050851;28;20086;-63
2022/02/09 11:27:37;;;;;;;3.20;2.35;;;12.80;94.10;;;;;;5049757;28;20029;-63
2022/02/09 11:30:14;;;;;;;4.88;2.25;;;12.80;94.00;;;;;;5047880;28;20425;-63
2022/02/09 11:33:23;;;;;;;4.63;2.17;;;12.80;93.90;;;;;;5034396;28;20041;-61
2022/02/09 11:36:16;;;;;;;3.88;2.50;;;12.80;94.10;;;;;;5035089;28;20029;-62
2022/02/09 11:38:46;;;;;;;5.05;2.47;;;12.80;93.90;;;;;;5045099;28;20040;-63
2022/02/09 11:41:15;;;;;;;3.42;2.05;;;12.90;93.60;;;;;;5048889;28;20026;-63
2022/02/09 11:44:28;;;;;;;3.70;1.95;;;12.90;93.90;;;;;;5051054;28;20037;-63
2022/02/09 11:47:14;;;;;;;4.25;2.10;;;12.90;93.90;;;;;;5023362;28;20449;-63
2022/02/09 11:50:09;;;;;;;5.20;1.83;;;12.90;93.70;;;;;;5049164;28;20119;-62
2022/02/09 11:54:38;;;;;;;2.85;2.10;;;13.00;93.70;;;;;;5034164;28;20095;-64
2022/02/09 12:09:41;;;;;;;3.35;2.03;;;13.00;93.80;;;;;;5043910;28;20036;-62
2022/02/09 12:12:16;;;;;;;3.50;2.13;;;13.00;93.50;;;;;;5048441;28;20553;-61
2022/02/09 12:15:13;;;;;;;3.72;2.05;;;13.00;93.50;;;;;;5041625;28;20036;-62
2022/02/09 12:20:28;;;;;;;7.32;2.47;;;13.00;93.40;;;;;;5036308;28;20413;-62
2022/02/09 12:23:13;;;;;;;4.60;2.17;;;12.90;93.40;;;;;;5037221;28;20033;-63
2022/02/09 12:25:38;;;;;;;5.50;3.17;;;13.00;93.40;;;;;;5040147;28;20029;-61
2022/02/09 12:28:04;;;;;;;5.05;2.40;;;13.00;93.60;;;;;;5039060;28;20098;-62
2022/02/09 12:30:29;;;;;;;5.47;2.40;;;13.00;93.60;;;;;;5040788;28;20076;-62
2022/02/09 12:32:55;;;;;;;5.95;2.88;;;13.00;93.60;;;;;;5039881;28;20103;-62
2022/02/09 12:35:21;;;;;;;5.53;2.50;;;13.00;93.50;;;;;;5042774;28;20021;-61
2022/02/09 12:37:47;;;;;;;3.97;2.40;;;12.90;93.80;;;;;;5039762;28;20670;-62
2022/02/09 12:40:15;;;;;;;3.45;2.45;;;12.90;93.80;;;;;;5040228;28;20029;-62
2022/02/09 12:42:52;;;;;;;5.57;3.03;;;12.90;94.00;;;;;;5041997;28;20029;-61
2022/02/09 12:45:26;;;;;;;5.07;2.72;;;12.80;94.20;;;;;;5037999;28;20032;-61
2022/02/09 12:47:57;;;;;;;4.28;2.88;;;12.80;94.40;;;;;;5043888;28;20324;-62
2022/02/09 12:50:32;;;;;;;6.28;2.55;;;12.70;94.60;;;;;;5038993;28;20069;-62
2022/02/09 12:52:59;;;;;;;3.05;2.22;;;12.70;94.80;;;;;;5039935;28;20032;-62
2022/02/09 12:55:27;;;;;;;3.05;2.10;;;12.70;94.80;;;;;;5044480;28;20026;-62
2022/02/09 12:57:57;;;;;;;4.55;2.63;;;12.70;94.80;;;;;;5041984;28;20032;-61
2022/02/09 13:00:32;;;;;;;3.95;2.00;;;12.70;94.80;;;;;;5039696;28;20072;-62
2022/02/09 13:03:02;;;;;;;3.63;2.35;;;12.70;94.90;;;;;;5039912;28;20036;-61
2022/02/09 13:05:28;;;;;;;4.15;2.10;;;12.70;95.00;;;;;;5041923;28;20037;-61
2022/02/09 13:07:59;;;;;;;2.90;2.10;;;12.60;95.00;;;;;;5039518;28;20056;-62
2022/02/09 13:10:29;;;;;;;4.75;2.42;;;12.60;95.00;;;;;;5043890;28;20024;-61
2022/02/09 13:13:00;;;;;;;5.18;2.72;;;12.60;95.00;;;;;;5039967;28;20021;-61
2022/02/09 13:15:30;;;;;;;3.13;2.30;;;12.70;95.00;;;;;;5039956;28;20411;-61
2022/02/09 13:23:42;;;;;;;3.95;2.40;;;12.70;94.90;;;;;;5040254;28;20082;-61
2022/02/09 13:52:34;;;;;;;3.97;2.38;;;13.00;94.60;;;;;;5040057;28;20097;-63
2022/02/09 14:03:49;;;;;;;3.00;1.92;;;13.00;94.50;;;;;;5039188;28;20090;-61
2022/02/09 14:11:50;;;;;;;3.17;2.03;;;12.90;94.40;;;;;;5039819;28;20017;-61
2022/02/09 14:17:10;;;;;;;2.80;2.20;;;12.80;94.50;;;;;;5037749;28;20052;-62
2022/02/09 14:23:52;;;;;;;2.72;1.90;;;12.80;94.40;;;;;;5038298;28;20059;-62
2022/02/09 14:34:28;;;;;;;2.80;1.90;;;12.70;94.60;;;;;;5037940;28;20047;-61
2022/02/09 14:47:16;;;;;;;2.92;2.17;;;12.70;94.60;;;;;;5035299;28;20106;-61
2022/02/09 14:47:24;;;;;;;3.50;2.40;;;12.60;94.60;;;;;;5038116;28;20043;-61
2022/02/09 14:48:09;;;;;;;2.97;2.20;;;12.60;94.60;;;;;;5040448;28;20198;-61
2022/02/09 14:55:59;;;;;;;6.30;2.67;;;12.40;94.70;;;;;;5039262;28;20484;-62
2022/02/09 14:58:28;;;;;;;3.57;2.40;;;12.40;94.80;;;;;;5041450;28;20034;-62
2022/02/09 15:01:08;;;;;;;3.13;2.17;;;12.40;94.90;;;;;;5054081;28;20029;-62
2022/02/09 15:11:40;;;;;;;5.13;2.85;;;12.30;95.10;;;;;;5023544;28;20014;-61
2022/02/09 15:14:19;;;;;;;4.90;3.15;;;12.30;95.20;;;;;;5035873;28;20048;-62
2022/02/09 15:17:02;;;;;;;5.70;2.67;;;12.20;95.30;;;;;;5037417;28;20028;-61
2022/02/09 15:19:40;;;;;;;4.22;2.90;;;12.20;95.40;;;;;;5043183;28;20091;-61
2022/02/09 15:22:08;;;;;;;4.38;2.53;;;12.20;95.50;;;;;;5041758;28;20029;-62
2022/02/09 15:24:46;;;;;;;3.17;2.63;;;12.10;95.70;;;;;;5041168;28;20108;-62
2022/02/09 15:27:17;;;;;;;3.70;2.35;;;12.10;95.80;;;;;;5041092;28;20388;-61
2022/02/09 15:29:44;;;;;;;3.70;2.60;;;12.10;95.90;;;;;;5040153;28;20612;-61
2022/02/09 15:32:32;;;;;;;4.10;2.70;;;12.10;96.00;;;;;;5043577;28;20377;-61
2022/02/09 15:35:03;;;;;;;3.85;2.55;;;12.10;96.10;;;;;;5040944;28;20053;-61
2022/02/09 15:37:40;;;;;;;3.50;2.60;;;12.10;96.20;;;;;;5042615;28;20041;-61
2022/02/09 15:40:13;;;;;;;4.03;2.15;;;12.10;96.30;;;;;;5039226;28;20451;-61
2022/02/09 15:56:17;;;;;;;5.35;2.33;;;12.00;96.60;;;;;;5041469;28;20412;-61
2022/02/09 16:08:10;;;;;;;4.40;3.22;;;11.80;97.00;;;;;;5038097;28;20463;-61
2022/02/09 16:10:04;;;;;;;4.28;2.70;;;11.80;97.00;;;;;;5041370;28;20061;-61
2022/02/09 16:23:32;;;;;;;7.68;4.10;;;11.70;97.20;;;;;;5041932;28;20481;-61
2022/02/09 16:26:15;;;;;;;4.65;3.38;;;11.70;97.20;;;;;;5041404;28;20047;-61
2022/02/09 16:35:06;;;;;;;4.10;3.08;;;11.80;97.30;;;;;;5039517;28;20291;-63
2022/02/09 16:37:37;;;;;;;5.15;3.13;;;11.70;97.20;;;;;;5037448;28;20472;-62
2022/02/09 16:45:30;;;;;;;3.67;2.80;;;11.80;97.30;;;;;;5042462;28;20330;-62
2022/02/09 16:48:00;;;;;;;5.45;3.40;;;11.80;97.20;;;;;;5042290;28;20527;-62
2022/02/09 16:50:35;;;;;;;4.45;3.13;;;11.80;97.40;;;;;;5037105;28;20021;-62
2022/02/09 16:53:19;;;;;;;5.80;2.83;;;11.80;97.20;;;;;;5037991;28;20084;-62
2022/02/09 17:19:51;;;;;;;6.30;4.60;;;11.80;97.50;;;;;;5035579;28;20049;-62
2022/02/09 17:22:16;;;;;;;4.25;3.65;;;11.80;97.60;;;;;;5041785;28;20108;-61
2022/02/09 17:24:42;;;;;;;4.20;3.20;;;11.80;97.50;;;;;;5040268;28;20033;-61
2022/02/09 17:27:15;;;;;;;77.22;12.27;;;11.70;97.50;;;;;;5037403;28;20037;-61
2022/02/09 17:32:47;;;;;;;8.07;3.33;;;11.70;97.30;;;;;;5022079;28;20037;-61
2022/02/09 17:35:20;;;;;;;15.60;4.50;;;11.70;97.30;;;;;;5042527;28;20029;-62
2022/02/09 17:53:23;;;;;;;4.75;3.20;;;11.70;97.30;;;;;;5040697;28;20059;-62
2022/02/09 17:55:10;;;;;;;6.38;3.60;;;11.70;97.20;;;;;;5006980;28;20771;-61
2022/02/09 17:57:09;;;;;;;5.55;3.63;;;11.70;97.20;;;;;;5002476;28;20041;-61
2022/02/09 17:59:43;;;;;;;5.28;3.55;;;11.70;97.30;;;;;;5020938;28;20041;-61
2022/02/09 18:02:17;;;;;;;4.63;3.40;;;11.70;97.40;;;;;;5058242;28;20444;-62
2022/02/09 18:04:44;;;;;;;5.05;3.30;;;11.70;97.40;;;;;;5048336;28;20633;-61
2022/02/09 18:07:15;;;;;;;5.22;3.67;;;11.70;97.50;;;;;;5043664;28;20531;-61
2022/02/09 18:09:46;;;;;;;5.95;4.10;;;11.60;97.50;;;;;;5051715;28;20021;-61
2022/02/09 18:12:27;;;;;;;6.15;4.32;;;11.60;97.50;;;;;;5044970;28;20428;-61
2022/02/09 18:15:15;;;;;;;5.13;3.92;;;11.60;97.50;;;;;;5041783;28;20045;-61
2022/02/09 18:27:08;;;;;;;6.53;4.13;;;11.60;97.60;;;;;;5039849;28;20029;-63
2022/02/09 18:32:07;;;;;;;16.77;4.90;;;11.60;97.60;;;;;;5038493;28;20042;-61
2022/02/09 18:45:06;;;;;;;7.05;5.00;;;11.60;97.50;;;;;;5049796;28;20022;-61
2022/02/09 19:01:59;;;;;;;8.40;5.00;;;11.60;97.40;;;;;;5033880;28;20089;-62
2022/02/09 19:04:27;;;;;;;5.55;4.75;;;11.60;97.30;;;;;;5026231;28;20382;-62
2022/02/09 19:20:55;;;;;;;7.25;4.53;;;11.60;97.10;;;;;;5027815;28;20046;-63
2022/02/09 19:31:35;;;;;;;7.25;4.90;;;11.70;97.10;;;;;;5038442;28;20112;-63
2022/02/09 19:44:57;;;;;;;7.45;4.93;;;11.80;96.90;;;;;;5034917;28;20057;-63
2022/02/09 19:50:08;;;;;;;6.90;5.13;;;11.80;96.90;;;;;;5036608;28;20017;-62
2022/02/09 19:52:51;;;;;;;5.70;4.43;;;11.80;96.80;;;;;;5045648;28;20095;-62
2022/02/09 19:55:32;;;;;;;5.82;4.88;;;11.80;96.80;;;;;;5041641;28;20473;-62
2022/02/09 19:58:00;;;;;;;6.57;4.97;;;11.80;96.70;;;;;;5038356;28;20095;-62
2022/02/09 20:00:29;;;;;;;8.18;5.45;;;11.80;96.70;;;;;;5039225;28;20385;-62
2022/02/09 20:02:54;;;;;;;7.15;5.57;;;11.80;96.60;;;;;;5039588;28;20025;-62
2022/02/09 20:05:20;;;;;;;5.53;4.47;;;11.80;96.60;;;;;;5028617;28;20026;-62
2022/02/09 20:07:46;;;;;;;6.70;4.97;;;11.80;96.60;;;;;;5036543;28;20104;-62
2022/02/09 20:10:12;;;;;;;6.47;4.70;;;11.80;96.60;;;;;;5037124;28;20120;-62
2022/02/09 20:12:41;;;;;;;7.00;5.13;;;11.80;96.50;;;;;;5034037;28;20087;-62
2022/02/09 20:15:17;;;;;;;7.40;5.78;;;11.70;96.50;;;;;;5031548;28;20366;-63
2022/02/09 20:17:44;;;;;;;6.28;4.60;;;11.80;96.50;;;;;;5029528;28;20141;-62
2022/02/09 20:20:15;;;;;;;6.53;5.10;;;11.80;96.40;;;;;;5039857;28;20029;-62
2022/02/09 20:22:42;;;;;;;7.38;5.20;;;11.80;96.40;;;;;;5040482;28;20033;-62
2022/02/09 20:25:09;;;;;;;6.45;4.90;;;11.90;96.40;;;;;;5038931;28;20028;-62
2022/02/09 20:27:37;;;;;;;7.43;5.55;;;11.80;96.30;;;;;;5017960;28;20515;-62
2022/02/09 20:30:06;;;;;;;6.80;4.97;;;11.80;96.30;;;;;;5011318;28;20037;-62
2022/02/09 20:32:36;;;;;;;7.95;6.00;;;11.80;96.20;;;;;;5013536;28;20052;-62
2022/02/09 20:35:06;;;;;;;6.97;5.32;;;11.90;96.20;;;;;;5015014;28;20029;-62
2022/02/09 20:37:32;;;;;;;8.60;5.20;;;11.90;96.20;;;;;;5013775;28;20057;-61
2022/02/09 20:40:06;;;;;;;7.55;5.00;;;11.80;96.20;;;;;;5026143;28;20492;-62
2022/02/09 20:42:33;;;;;;;6.78;4.97;;;11.90;96.20;;;;;;5023661;28;20037;-61
2022/02/09 20:45:06;;;;;;;7.20;5.05;;;11.90;96.20;;;;;;5022459;28;20068;-61
2022/02/09 20:47:33;;;;;;;7.68;5.80;;;11.90;96.10;;;;;;5034268;28;20033;-61
2022/02/09 20:49:58;;;;;;;6.78;5.13;;;11.80;96.10;;;;;;5038656;28;20397;-61
2022/02/09 20:52:24;;;;;;;7.45;4.88;;;11.90;96.10;;;;;;5032236;28;20032;-62
2022/02/09 20:54:49;;;;;;;6.88;5.25;;;11.90;96.10;;;;;;5022094;28;20034;-62
2022/02/09 20:57:15;;;;;;;6.53;5.13;;;11.80;96.00;;;;;;5021255;28;20117;-62
2022/02/09 20:59:46;;;;;;;6.35;5.32;;;11.80;96.10;;;;;;5023491;28;20049;-61
2022/02/09 21:04:49;;;;;;;6.18;4.53;;;11.80;96.10;;;;;;5030530;28;20033;-62
2022/02/09 21:07:30;;;;;;;6.05;5.07;;;11.80;96.10;;;;;;5032182;28;20091;-62
2022/02/09 21:10:11;;;;;;;6.45;4.90;;;11.90;96.00;;;;;;5025341;28;20056;-63
2022/02/09 21:12:46;;;;;;;6.97;5.28;;;11.80;95.90;;;;;;5032153;28;20378;-63
2022/02/09 21:15:34;;;;;;;7.40;5.60;;;11.90;95.90;;;;;;5026109;28;20033;-62
2022/02/09 21:18:33;;;;;;;7.22;5.55;;;11.80;96.00;;;;;;5011960;28;20053;-63
2022/02/09 21:24:06;;;;;;;7.47;5.93;;;11.80;96.00;;;;;;5018462;28;20625;-63
2022/02/09 21:32:09;;;;;;;7.13;4.97;;;11.80;96.00;;;;;;5011581;28;20362;-62
2022/02/09 21:52:16;;;;;;;8.07;5.40;;;11.80;96.00;;;;;;5027862;28;19909;-63
2022/02/09 21:54:12;;;;;;;7.72;5.32;;;11.80;95.90;;;;;;5024541;28;20383;-63
2022/02/09 21:59:40;;;;;;;7.07;5.53;;;11.80;95.90;;;;;;5020059;28;20499;-63
2022/02/09 22:24:21;;;;;;;7.75;5.88;;;11.80;95.90;;;;;;5011197;28;20264;-62
2022/02/09 22:29:04;;;;;;;10.30;7.60;;;11.70;95.80;;;;;;5011553;28;20080;-65
2022/02/09 22:50:24;;;;;;;9.70;6.90;;;11.70;95.90;;;;;;5014810;28;20441;-61
2022/02/09 22:55:40;;;;;;;12.00;7.90;;;11.70;95.90;;;;;;5029341;28;20021;-62
2022/02/09 22:58:07;;;;;;;12.45;7.68;;;11.70;95.90;;;;;;5031767;28;20037;-61
2022/02/09 23:01:01;;;;;;;9.63;7.28;;;11.70;95.90;;;;;;5032628;28;20091;-61
2022/02/09 23:06:28;;;;;;;10.23;7.88;;;11.70;95.90;;;;;;5015458;28;20113;-62
2022/02/09 23:11:43;;;;;;;10.20;7.88;;;11.70;95.80;;;;;;5018261;28;20109;-61
2022/02/09 23:14:32;;;;;;;10.25;7.43;;;11.70;95.80;;;;;;5017180;28;20223;-62
2022/02/09 23:28:34;;;;;;;11.43;7.70;;;11.70;95.80;;;;;;5014142;28;20033;-62
2022/02/09 23:55:38;;;;;;;11.30;6.65;;;11.80;95.60;;;;;;5031453;28;20156;-63
